sensor_id;sensor_type;location;lat;lon;timestamp;P1;durP1;ratioP1;P2;durP2;ratioP2
18435;SDS011;9346;52.006;4.720;2023-09-12T00:00:39;28.70;;;16.90;;
18435;SDS011;9346;52.006;4.720;2023-09-12T00:03:06;28.30;;;17.63;;
18435;SDS011;9346;52.006;4.720;2023-09-12T00:05:32;29.67;;;16.70;;
18435;SDS011;9346;52.006;4.720;2023-09-12T00:08:01;27.27;;;17.77;;
18435;SDS011;9346;52.006;4.720;2023-09-12T00:10:28;27.13;;;16.47;;
18435;SDS011;9346;52.006;4.720;2023-09-12T00:12:55;23.93;;;14.70;;
18435;SDS011;9346;52.006;4.720;2023-09-12T00:15:22;25.43;;;14.67;;
18435;SDS011;9346;52.006;4.720;2023-09-12T00:17:48;19.17;;;12.67;;
18435;SDS011;9346;52.006;4.720;2023-09-12T00:20:15;19.03;;;12.77;;
18435;SDS011;9346;52.006;4.720;2023-09-12T00:22:42;18.97;;;12.07;;
18435;SDS011;9346;52.006;4.720;2023-09-12T00:25:10;20.63;;;13.07;;
18435;SDS011;9346;52.006;4.720;2023-09-12T00:27:37;17.57;;;12.07;;
18435;SDS011;9346;52.006;4.720;2023-09-12T00:30:04;20.53;;;13.57;;
18435;SDS011;9346;52.006;4.720;2023-09-12T00:32:32;17.40;;;11.87;;
18435;SDS011;9346;52.006;4.720;2023-09-12T00:34:58;16.53;;;11.23;;
18435;SDS011;9346;52.006;4.720;2023-09-12T00:37:25;15.03;;;11.37;;
18435;SDS011;9346;52.006;4.720;2023-09-12T00:39:52;16.47;;;11.37;;
18435;SDS011;9346;52.006;4.720;2023-09-12T00:42:20;20.03;;;11.87;;
18435;SDS011;9346;52.006;4.720;2023-09-12T00:44:47;17.93;;;12.07;;
18435;SDS011;9346;52.006;4.720;2023-09-12T00:47:13;16.43;;;11.50;;
18435;SDS011;9346;52.006;4.720;2023-09-12T00:49:41;13.73;;;10.20;;
18435;SDS011;9346;52.006;4.720;2023-09-12T00:52:09;19.87;;;11.47;;
18435;SDS011;9346;52.006;4.720;2023-09-12T00:54:37;15.50;;;10.43;;
18435;SDS011;9346;52.006;4.720;2023-09-12T00:57:04;15.67;;;9.77;;
18435;SDS011;9346;52.006;4.720;2023-09-12T00:59:33;13.20;;;9.00;;
18435;SDS011;9346;52.006;4.720;2023-09-12T01:02:00;11.60;;;8.57;;
18435;SDS011;9346;52.006;4.720;2023-09-12T01:04:27;11.87;;;8.10;;
18435;SDS011;9346;52.006;4.720;2023-09-12T01:06:55;9.53;;;7.90;;
18435;SDS011;9346;52.006;4.720;2023-09-12T01:09:21;9.90;;;7.57;;
18435;SDS011;9346;52.006;4.720;2023-09-12T01:11:48;9.73;;;7.73;;
18435;SDS011;9346;52.006;4.720;2023-09-12T01:14:15;9.80;;;7.83;;
18435;SDS011;9346;52.006;4.720;2023-09-12T01:16:43;11.63;;;7.23;;
18435;SDS011;9346;52.006;4.720;2023-09-12T01:19:10;9.37;;;7.17;;
18435;SDS011;9346;52.006;4.720;2023-09-12T01:24:52;8.90;;;7.27;;
18435;SDS011;9346;52.006;4.720;2023-09-12T01:27:35;10.73;;;8.47;;
18435;SDS011;9346;52.006;4.720;2023-09-12T01:30:05;10.87;;;8.37;;
18435;SDS011;9346;52.006;4.720;2023-09-12T01:32:33;14.30;;;9.20;;
18435;SDS011;9346;52.006;4.720;2023-09-12T01:35:01;14.80;;;9.87;;
18435;SDS011;9346;52.006;4.720;2023-09-12T01:37:29;12.73;;;9.73;;
18435;SDS011;9346;52.006;4.720;2023-09-12T01:39:56;12.33;;;9.10;;
18435;SDS011;9346;52.006;4.720;2023-09-12T01:42:23;13.43;;;9.50;;
18435;SDS011;9346;52.006;4.720;2023-09-12T01:44:56;12.80;;;9.63;;
18435;SDS011;9346;52.006;4.720;2023-09-12T01:47:23;14.60;;;9.27;;
18435;SDS011;9346;52.006;4.720;2023-09-12T01:49:52;14.20;;;9.00;;
18435;SDS011;9346;52.006;4.720;2023-09-12T01:52:21;11.70;;;9.33;;
18435;SDS011;9346;52.006;4.720;2023-09-12T01:54:49;14.83;;;9.90;;
18435;SDS011;9346;52.006;4.720;2023-09-12T01:57:17;14.53;;;10.63;;
18435;SDS011;9346;52.006;4.720;2023-09-12T01:59:46;14.23;;;9.13;;
18435;SDS011;9346;52.006;4.720;2023-09-12T02:02:14;13.93;;;10.20;;
18435;SDS011;9346;52.006;4.720;2023-09-12T02:04:41;15.03;;;9.80;;
18435;SDS011;9346;52.006;4.720;2023-09-12T02:07:08;13.37;;;9.23;;
18435;SDS011;9346;52.006;4.720;2023-09-12T02:09:34;14.93;;;9.80;;
18435;SDS011;9346;52.006;4.720;2023-09-12T02:12:01;16.30;;;10.00;;
18435;SDS011;9346;52.006;4.720;2023-09-12T02:14:28;14.83;;;10.40;;
18435;SDS011;9346;52.006;4.720;2023-09-12T02:16:54;12.93;;;9.50;;
18435;SDS011;9346;52.006;4.720;2023-09-12T02:19:23;13.03;;;9.30;;
18435;SDS011;9346;52.006;4.720;2023-09-12T02:21:49;11.57;;;8.50;;
18435;SDS011;9346;52.006;4.720;2023-09-12T02:24:16;10.77;;;8.23;;
18435;SDS011;9346;52.006;4.720;2023-09-12T02:26:43;11.10;;;7.80;;
18435;SDS011;9346;52.006;4.720;2023-09-12T02:29:10;10.40;;;7.67;;
18435;SDS011;9346;52.006;4.720;2023-09-12T02:31:37;9.70;;;7.37;;
18435;SDS011;9346;52.006;4.720;2023-09-12T02:34:04;8.70;;;6.97;;
18435;SDS011;9346;52.006;4.720;2023-09-12T02:36:32;9.00;;;7.53;;
18435;SDS011;9346;52.006;4.720;2023-09-12T02:38:59;8.43;;;6.30;;
18435;SDS011;9346;52.006;4.720;2023-09-12T02:41:26;8.43;;;7.03;;
18435;SDS011;9346;52.006;4.720;2023-09-12T02:43:52;9.90;;;6.57;;
18435;SDS011;9346;52.006;4.720;2023-09-12T02:46:19;8.30;;;6.27;;
18435;SDS011;9346;52.006;4.720;2023-09-12T02:48:46;13.13;;;7.90;;
18435;SDS011;9346;52.006;4.720;2023-09-12T02:51:12;9.27;;;7.27;;
18435;SDS011;9346;52.006;4.720;2023-09-12T02:53:41;8.73;;;6.93;;
18435;SDS011;9346;52.006;4.720;2023-09-12T02:56:08;9.13;;;6.53;;
18435;SDS011;9346;52.006;4.720;2023-09-12T02:58:35;7.90;;;6.53;;
18435;SDS011;9346;52.006;4.720;2023-09-12T03:01:02;7.93;;;6.53;;
18435;SDS011;9346;52.006;4.720;2023-09-12T03:03:31;8.20;;;5.90;;
18435;SDS011;9346;52.006;4.720;2023-09-12T03:05:58;9.23;;;6.97;;
18435;SDS011;9346;52.006;4.720;2023-09-12T03:08:25;8.00;;;6.23;;
18435;SDS011;9346;52.006;4.720;2023-09-12T03:10:55;9.40;;;7.37;;
18435;SDS011;9346;52.006;4.720;2023-09-12T03:13:23;8.23;;;5.70;;
18435;SDS011;9346;52.006;4.720;2023-09-12T03:15:51;8.30;;;5.63;;
18435;SDS011;9346;52.006;4.720;2023-09-12T03:18:17;9.43;;;6.37;;
18435;SDS011;9346;52.006;4.720;2023-09-12T03:20:44;8.87;;;6.60;;
18435;SDS011;9346;52.006;4.720;2023-09-12T03:23:11;10.23;;;7.07;;
18435;SDS011;9346;52.006;4.720;2023-09-12T03:25:38;10.97;;;7.53;;
18435;SDS011;9346;52.006;4.720;2023-09-12T03:28:07;10.80;;;6.97;;
18435;SDS011;9346;52.006;4.720;2023-09-12T03:30:34;13.50;;;8.10;;
18435;SDS011;9346;52.006;4.720;2023-09-12T03:33:02;15.30;;;8.17;;
18435;SDS011;9346;52.006;4.720;2023-09-12T03:35:30;8.63;;;6.70;;
18435;SDS011;9346;52.006;4.720;2023-09-12T03:37:58;11.07;;;7.37;;
18435;SDS011;9346;52.006;4.720;2023-09-12T03:40:25;9.83;;;7.10;;
18435;SDS011;9346;52.006;4.720;2023-09-12T03:42:51;14.43;;;7.90;;
18435;SDS011;9346;52.006;4.720;2023-09-12T03:45:20;12.33;;;9.10;;
18435;SDS011;9346;52.006;4.720;2023-09-12T03:47:47;11.83;;;7.47;;
18435;SDS011;9346;52.006;4.720;2023-09-12T03:50:14;13.40;;;9.33;;
18435;SDS011;9346;52.006;4.720;2023-09-12T03:52:41;12.83;;;8.50;;
18435;SDS011;9346;52.006;4.720;2023-09-12T03:55:08;11.53;;;7.87;;
18435;SDS011;9346;52.006;4.720;2023-09-12T03:57:35;12.73;;;8.87;;
18435;SDS011;9346;52.006;4.720;2023-09-12T04:00:02;15.80;;;10.37;;
18435;SDS011;9346;52.006;4.720;2023-09-12T04:02:33;15.40;;;10.70;;
18435;SDS011;9346;52.006;4.720;2023-09-12T04:05:00;17.13;;;10.60;;
18435;SDS011;9346;52.006;4.720;2023-09-12T04:07:26;18.13;;;11.07;;
18435;SDS011;9346;52.006;4.720;2023-09-12T04:09:53;15.73;;;10.20;;
18435;SDS011;9346;52.006;4.720;2023-09-12T04:12:21;18.57;;;11.00;;
18435;SDS011;9346;52.006;4.720;2023-09-12T04:14:49;17.53;;;10.90;;
18435;SDS011;9346;52.006;4.720;2023-09-12T04:17:16;16.07;;;10.57;;
18435;SDS011;9346;52.006;4.720;2023-09-12T04:19:45;21.40;;;12.40;;
18435;SDS011;9346;52.006;4.720;2023-09-12T04:22:11;25.90;;;13.53;;
18435;SDS011;9346;52.006;4.720;2023-09-12T04:24:38;29.67;;;13.33;;
18435;SDS011;9346;52.006;4.720;2023-09-12T04:27:05;25.73;;;14.63;;
18435;SDS011;9346;52.006;4.720;2023-09-12T04:29:32;21.77;;;13.93;;
18435;SDS011;9346;52.006;4.720;2023-09-12T04:31:59;23.37;;;12.87;;
18435;SDS011;9346;52.006;4.720;2023-09-12T04:34:26;23.77;;;13.93;;
18435;SDS011;9346;52.006;4.720;2023-09-12T04:36:54;25.30;;;13.77;;
18435;SDS011;9346;52.006;4.720;2023-09-12T04:39:21;24.73;;;13.57;;
18435;SDS011;9346;52.006;4.720;2023-09-12T04:41:48;32.13;;;15.73;;
18435;SDS011;9346;52.006;4.720;2023-09-12T04:44:14;25.63;;;15.40;;
18435;SDS011;9346;52.006;4.720;2023-09-12T04:46:41;30.23;;;15.47;;
18435;SDS011;9346;52.006;4.720;2023-09-12T04:49:08;25.67;;;14.07;;
18435;SDS011;9346;52.006;4.720;2023-09-12T04:51:35;28.07;;;14.73;;
18435;SDS011;9346;52.006;4.720;2023-09-12T04:54:03;27.57;;;14.67;;
18435;SDS011;9346;52.006;4.720;2023-09-12T04:56:30;32.17;;;14.83;;
18435;SDS011;9346;52.006;4.720;2023-09-12T04:58:57;26.90;;;15.27;;
18435;SDS011;9346;52.006;4.720;2023-09-12T05:01:24;24.57;;;14.17;;
18435;SDS011;9346;52.006;4.720;2023-09-12T05:03:51;30.07;;;14.93;;
18435;SDS011;9346;52.006;4.720;2023-09-12T05:06:18;32.93;;;14.73;;
18435;SDS011;9346;52.006;4.720;2023-09-12T05:08:44;30.07;;;15.93;;
18435;SDS011;9346;52.006;4.720;2023-09-12T05:11:14;31.10;;;15.53;;
18435;SDS011;9346;52.006;4.720;2023-09-12T05:13:40;28.70;;;15.93;;
18435;SDS011;9346;52.006;4.720;2023-09-12T05:16:07;29.20;;;15.03;;
18435;SDS011;9346;52.006;4.720;2023-09-12T05:18:34;31.70;;;15.33;;
18435;SDS011;9346;52.006;4.720;2023-09-12T05:21:01;28.73;;;15.97;;
18435;SDS011;9346;52.006;4.720;2023-09-12T05:23:28;31.00;;;14.53;;
18435;SDS011;9346;52.006;4.720;2023-09-12T05:25:54;32.73;;;17.47;;
18435;SDS011;9346;52.006;4.720;2023-09-12T05:28:23;28.73;;;15.40;;
18435;SDS011;9346;52.006;4.720;2023-09-12T05:30:49;27.10;;;15.47;;
18435;SDS011;9346;52.006;4.720;2023-09-12T05:33:16;32.57;;;17.50;;
18435;SDS011;9346;52.006;4.720;2023-09-12T05:35:43;30.47;;;15.50;;
18435;SDS011;9346;52.006;4.720;2023-09-12T05:38:10;24.77;;;14.43;;
18435;SDS011;9346;52.006;4.720;2023-09-12T05:40:37;33.60;;;16.47;;
18435;SDS011;9346;52.006;4.720;2023-09-12T05:43:03;26.53;;;15.47;;
18435;SDS011;9346;52.006;4.720;2023-09-12T05:45:32;38.57;;;17.23;;
18435;SDS011;9346;52.006;4.720;2023-09-12T05:47:58;31.07;;;16.63;;
18435;SDS011;9346;52.006;4.720;2023-09-12T05:50:25;28.97;;;15.37;;
18435;SDS011;9346;52.006;4.720;2023-09-12T05:52:52;34.53;;;17.37;;
18435;SDS011;9346;52.006;4.720;2023-09-12T05:55:19;37.67;;;18.23;;
18435;SDS011;9346;52.006;4.720;2023-09-12T05:57:45;36.23;;;17.07;;
18435;SDS011;9346;52.006;4.720;2023-09-12T06:00:17;36.87;;;17.23;;
18435;SDS011;9346;52.006;4.720;2023-09-12T06:02:46;35.27;;;17.90;;
18435;SDS011;9346;52.006;4.720;2023-09-12T06:05:13;35.47;;;17.30;;
18435;SDS011;9346;52.006;4.720;2023-09-12T06:07:39;35.93;;;17.87;;
18435;SDS011;9346;52.006;4.720;2023-09-12T06:10:07;30.23;;;17.30;;
18435;SDS011;9346;52.006;4.720;2023-09-12T06:12:34;35.13;;;16.50;;
18435;SDS011;9346;52.006;4.720;2023-09-12T06:15:02;33.50;;;15.87;;
18435;SDS011;9346;52.006;4.720;2023-09-12T06:17:30;40.70;;;18.67;;
18435;SDS011;9346;52.006;4.720;2023-09-12T06:19:58;33.13;;;17.13;;
18435;SDS011;9346;52.006;4.720;2023-09-12T06:22:25;44.20;;;18.20;;
18435;SDS011;9346;52.006;4.720;2023-09-12T06:24:52;40.30;;;18.47;;
18435;SDS011;9346;52.006;4.720;2023-09-12T06:27:19;36.93;;;17.53;;
18435;SDS011;9346;52.006;4.720;2023-09-12T06:29:46;36.60;;;17.73;;
18435;SDS011;9346;52.006;4.720;2023-09-12T06:32:13;42.90;;;19.27;;
18435;SDS011;9346;52.006;4.720;2023-09-12T06:34:40;40.90;;;17.10;;
18435;SDS011;9346;52.006;4.720;2023-09-12T06:37:08;38.37;;;18.20;;
18435;SDS011;9346;52.006;4.720;2023-09-12T06:39:37;44.87;;;19.33;;
18435;SDS011;9346;52.006;4.720;2023-09-12T06:42:04;48.73;;;18.43;;
18435;SDS011;9346;52.006;4.720;2023-09-12T06:44:31;41.30;;;18.20;;
18435;SDS011;9346;52.006;4.720;2023-09-12T06:46:58;46.57;;;18.50;;
18435;SDS011;9346;52.006;4.720;2023-09-12T06:49:24;52.23;;;20.20;;
18435;SDS011;9346;52.006;4.720;2023-09-12T06:51:51;56.47;;;20.87;;
18435;SDS011;9346;52.006;4.720;2023-09-12T06:54:19;55.77;;;19.20;;
18435;SDS011;9346;52.006;4.720;2023-09-12T06:56:46;47.10;;;18.00;;
18435;SDS011;9346;52.006;4.720;2023-09-12T06:59:12;49.37;;;19.50;;
18435;SDS011;9346;52.006;4.720;2023-09-12T07:01:39;45.00;;;19.50;;
18435;SDS011;9346;52.006;4.720;2023-09-12T07:04:06;54.60;;;21.33;;
18435;SDS011;9346;52.006;4.720;2023-09-12T07:06:32;49.17;;;20.40;;
18435;SDS011;9346;52.006;4.720;2023-09-12T07:08:59;41.80;;;19.30;;
18435;SDS011;9346;52.006;4.720;2023-09-12T07:11:28;49.37;;;20.97;;
18435;SDS011;9346;52.006;4.720;2023-09-12T07:13:55;52.53;;;19.97;;
18435;SDS011;9346;52.006;4.720;2023-09-12T07:16:21;45.03;;;18.40;;
18435;SDS011;9346;52.006;4.720;2023-09-12T07:18:48;61.00;;;21.77;;
18435;SDS011;9346;52.006;4.720;2023-09-12T07:21:15;57.77;;;20.70;;
18435;SDS011;9346;52.006;4.720;2023-09-12T07:23:42;57.20;;;21.03;;
18435;SDS011;9346;52.006;4.720;2023-09-12T07:26:11;56.20;;;19.50;;
18435;SDS011;9346;52.006;4.720;2023-09-12T07:28:40;56.73;;;21.03;;
18435;SDS011;9346;52.006;4.720;2023-09-12T07:31:07;57.00;;;21.20;;
18435;SDS011;9346;52.006;4.720;2023-09-12T07:33:35;60.20;;;22.97;;
18435;SDS011;9346;52.006;4.720;2023-09-12T07:36:02;58.57;;;21.07;;
18435;SDS011;9346;52.006;4.720;2023-09-12T07:38:29;57.70;;;22.93;;
18435;SDS011;9346;52.006;4.720;2023-09-12T07:40:56;60.43;;;23.30;;
18435;SDS011;9346;52.006;4.720;2023-09-12T07:43:25;54.50;;;22.47;;
18435;SDS011;9346;52.006;4.720;2023-09-12T07:45:56;59.60;;;22.03;;
18435;SDS011;9346;52.006;4.720;2023-09-12T07:48:23;57.27;;;22.83;;
18435;SDS011;9346;52.006;4.720;2023-09-12T07:50:50;60.40;;;22.93;;
18435;SDS011;9346;52.006;4.720;2023-09-12T07:53:17;62.90;;;24.00;;
18435;SDS011;9346;52.006;4.720;2023-09-12T07:55:44;57.67;;;23.20;;
18435;SDS011;9346;52.006;4.720;2023-09-12T07:58:12;55.97;;;22.23;;
18435;SDS011;9346;52.006;4.720;2023-09-12T08:00:39;56.10;;;22.10;;
18435;SDS011;9346;52.006;4.720;2023-09-12T08:03:08;53.47;;;22.97;;
18435;SDS011;9346;52.006;4.720;2023-09-12T08:05:34;47.43;;;22.97;;
18435;SDS011;9346;52.006;4.720;2023-09-12T08:08:01;48.20;;;22.53;;
18435;SDS011;9346;52.006;4.720;2023-09-12T08:10:28;53.87;;;19.93;;
18435;SDS011;9346;52.006;4.720;2023-09-12T08:12:55;57.43;;;24.57;;
18435;SDS011;9346;52.006;4.720;2023-09-12T08:15:22;51.27;;;22.90;;
18435;SDS011;9346;52.006;4.720;2023-09-12T08:17:48;53.00;;;21.70;;
18435;SDS011;9346;52.006;4.720;2023-09-12T08:20:19;63.07;;;23.53;;
18435;SDS011;9346;52.006;4.720;2023-09-12T08:22:46;41.77;;;20.70;;
18435;SDS011;9346;52.006;4.720;2023-09-12T08:25:13;48.27;;;20.10;;
18435;SDS011;9346;52.006;4.720;2023-09-12T08:27:40;46.47;;;23.37;;
18435;SDS011;9346;52.006;4.720;2023-09-12T08:30:09;58.33;;;24.73;;
18435;SDS011;9346;52.006;4.720;2023-09-12T08:32:37;51.27;;;23.30;;
18435;SDS011;9346;52.006;4.720;2023-09-12T08:35:08;43.80;;;21.77;;
18435;SDS011;9346;52.006;4.720;2023-09-12T08:37:37;40.20;;;20.97;;
18435;SDS011;9346;52.006;4.720;2023-09-12T08:40:05;42.57;;;21.37;;
18435;SDS011;9346;52.006;4.720;2023-09-12T08:42:33;43.70;;;20.93;;
18435;SDS011;9346;52.006;4.720;2023-09-12T08:45:05;47.73;;;21.60;;
18435;SDS011;9346;52.006;4.720;2023-09-12T08:47:35;48.40;;;22.17;;
18435;SDS011;9346;52.006;4.720;2023-09-12T08:50:04;45.37;;;22.13;;
18435;SDS011;9346;52.006;4.720;2023-09-12T08:52:31;49.33;;;23.50;;
18435;SDS011;9346;52.006;4.720;2023-09-12T08:55:00;49.50;;;22.03;;
18435;SDS011;9346;52.006;4.720;2023-09-12T08:57:28;49.13;;;23.23;;
18435;SDS011;9346;52.006;4.720;2023-09-12T08:59:59;47.33;;;22.20;;
18435;SDS011;9346;52.006;4.720;2023-09-12T09:02:31;45.73;;;23.20;;
18435;SDS011;9346;52.006;4.720;2023-09-12T09:04:58;48.30;;;22.87;;
18435;SDS011;9346;52.006;4.720;2023-09-12T09:07:25;45.90;;;23.83;;
18435;SDS011;9346;52.006;4.720;2023-09-12T09:09:53;42.17;;;21.83;;
18435;SDS011;9346;52.006;4.720;2023-09-12T09:12:24;43.60;;;23.03;;
18435;SDS011;9346;52.006;4.720;2023-09-12T09:14:53;42.53;;;21.40;;
18435;SDS011;9346;52.006;4.720;2023-09-12T09:17:19;42.33;;;22.27;;
18435;SDS011;9346;52.006;4.720;2023-09-12T09:19:46;39.90;;;20.93;;
18435;SDS011;9346;52.006;4.720;2023-09-12T09:22:13;50.83;;;23.27;;
18435;SDS011;9346;52.006;4.720;2023-09-12T09:24:40;46.60;;;24.63;;
18435;SDS011;9346;52.006;4.720;2023-09-12T09:27:06;41.60;;;21.60;;
18435;SDS011;9346;52.006;4.720;2023-09-12T09:29:45;40.67;;;23.53;;
18435;SDS011;9346;52.006;4.720;2023-09-12T09:32:16;42.17;;;21.97;;
18435;SDS011;9346;52.006;4.720;2023-09-12T09:34:43;39.03;;;22.23;;
18435;SDS011;9346;52.006;4.720;2023-09-12T09:37:10;40.67;;;21.73;;
18435;SDS011;9346;52.006;4.720;2023-09-12T09:39:37;41.63;;;22.40;;
18435;SDS011;9346;52.006;4.720;2023-09-12T09:42:04;39.57;;;21.03;;
18435;SDS011;9346;52.006;4.720;2023-09-12T09:44:36;37.43;;;19.63;;
18435;SDS011;9346;52.006;4.720;2023-09-12T09:47:05;37.27;;;20.47;;
18435;SDS011;9346;52.006;4.720;2023-09-12T09:49:32;38.87;;;20.07;;
18435;SDS011;9346;52.006;4.720;2023-09-12T09:51:59;40.80;;;20.50;;
18435;SDS011;9346;52.006;4.720;2023-09-12T09:54:29;33.57;;;18.37;;
18435;SDS011;9346;52.006;4.720;2023-09-12T09:56:56;36.50;;;20.13;;
18435;SDS011;9346;52.006;4.720;2023-09-12T09:59:24;38.17;;;20.67;;
18435;SDS011;9346;52.006;4.720;2023-09-12T10:01:53;37.80;;;20.00;;
18435;SDS011;9346;52.006;4.720;2023-09-12T10:04:26;38.23;;;20.37;;
18435;SDS011;9346;52.006;4.720;2023-09-12T10:06:55;34.40;;;18.30;;
18435;SDS011;9346;52.006;4.720;2023-09-12T10:09:25;37.40;;;20.47;;
18435;SDS011;9346;52.006;4.720;2023-09-12T10:11:54;33.10;;;19.43;;
18435;SDS011;9346;52.006;4.720;2023-09-12T10:14:22;33.93;;;19.67;;
18435;SDS011;9346;52.006;4.720;2023-09-12T10:16:53;37.60;;;20.23;;
18435;SDS011;9346;52.006;4.720;2023-09-12T10:19:30;33.60;;;19.43;;
18435;SDS011;9346;52.006;4.720;2023-09-12T10:22:03;29.27;;;17.93;;
18435;SDS011;9346;52.006;4.720;2023-09-12T10:24:35;32.27;;;19.43;;
18435;SDS011;9346;52.006;4.720;2023-09-12T10:27:03;32.17;;;18.80;;
18435;SDS011;9346;52.006;4.720;2023-09-12T10:29:31;31.50;;;18.27;;
18435;SDS011;9346;52.006;4.720;2023-09-12T10:31:58;33.87;;;18.20;;
18435;SDS011;9346;52.006;4.720;2023-09-12T10:34:25;27.87;;;17.07;;
18435;SDS011;9346;52.006;4.720;2023-09-12T10:36:56;29.97;;;17.50;;
18435;SDS011;9346;52.006;4.720;2023-09-12T10:39:24;29.37;;;17.93;;
18435;SDS011;9346;52.006;4.720;2023-09-12T10:41:54;24.33;;;16.97;;
18435;SDS011;9346;52.006;4.720;2023-09-12T10:44:21;26.37;;;16.40;;
18435;SDS011;9346;52.006;4.720;2023-09-12T10:46:49;24.70;;;15.07;;
18435;SDS011;9346;52.006;4.720;2023-09-12T10:49:18;24.90;;;15.70;;
18435;SDS011;9346;52.006;4.720;2023-09-12T10:51:47;24.70;;;14.97;;
18435;SDS011;9346;52.006;4.720;2023-09-12T10:54:15;23.50;;;15.30;;
18435;SDS011;9346;52.006;4.720;2023-09-12T10:56:42;22.13;;;14.90;;
18435;SDS011;9346;52.006;4.720;2023-09-12T10:59:15;24.25;;;14.93;;
18435;SDS011;9346;52.006;4.720;2023-09-12T11:01:42;23.27;;;15.82;;
18435;SDS011;9346;52.006;4.720;2023-09-12T11:04:33;22.43;;;14.70;;
18435;SDS011;9346;52.006;4.720;2023-09-12T11:07:07;23.45;;;14.65;;
18435;SDS011;9346;52.006;4.720;2023-09-12T11:10:16;24.67;;;13.43;;
18435;SDS011;9346;52.006;4.720;2023-09-12T11:12:48;26.60;;;15.25;;
18435;SDS011;9346;52.006;4.720;2023-09-12T11:15:16;20.15;;;13.77;;
18435;SDS011;9346;52.006;4.720;2023-09-12T11:17:44;23.65;;;13.73;;
18435;SDS011;9346;52.006;4.720;2023-09-12T11:20:12;22.10;;;12.80;;
18435;SDS011;9346;52.006;4.720;2023-09-12T11:22:42;23.38;;;13.52;;
18435;SDS011;9346;52.006;4.720;2023-09-12T11:25:16;22.60;;;13.27;;
18435;SDS011;9346;52.006;4.720;2023-09-12T11:28:01;23.45;;;14.50;;
18435;SDS011;9346;52.006;4.720;2023-09-12T11:30:30;25.60;;;13.40;;
18435;SDS011;9346;52.006;4.720;2023-09-12T11:32:57;23.73;;;15.13;;
18435;SDS011;9346;52.006;4.720;2023-09-12T11:35:26;24.95;;;14.05;;
18435;SDS011;9346;52.006;4.720;2023-09-12T11:37:56;22.70;;;14.32;;
18435;SDS011;9346;52.006;4.720;2023-09-12T11:40:25;24.45;;;13.63;;
18435;SDS011;9346;52.006;4.720;2023-09-12T11:43:07;21.23;;;12.45;;
18435;SDS011;9346;52.006;4.720;2023-09-12T11:45:34;19.48;;;12.40;;
18435;SDS011;9346;52.006;4.720;2023-09-12T11:48:02;20.60;;;12.65;;
18435;SDS011;9346;52.006;4.720;2023-09-12T11:50:29;20.30;;;13.20;;
18435;SDS011;9346;52.006;4.720;2023-09-12T11:53:03;18.73;;;12.20;;
18435;SDS011;9346;52.006;4.720;2023-09-12T11:55:32;20.58;;;12.77;;
18435;SDS011;9346;52.006;4.720;2023-09-12T11:58:00;19.67;;;12.45;;
18435;SDS011;9346;52.006;4.720;2023-09-12T12:00:28;19.48;;;12.27;;
18435;SDS011;9346;52.006;4.720;2023-09-12T12:02:55;18.88;;;11.55;;
18435;SDS011;9346;52.006;4.720;2023-09-12T12:05:22;20.50;;;12.50;;
18435;SDS011;9346;52.006;4.720;2023-09-12T12:07:49;12.43;;;7.97;;
18435;SDS011;9346;52.006;4.720;2023-09-12T12:10:18;6.90;;;4.63;;
18435;SDS011;9346;52.006;4.720;2023-09-12T12:12:44;5.97;;;4.00;;
18435;SDS011;9346;52.006;4.720;2023-09-12T12:15:12;3.47;;;3.10;;
18435;SDS011;9346;52.006;4.720;2023-09-12T12:17:40;4.60;;;2.50;;
18435;SDS011;9346;52.006;4.720;2023-09-12T12:20:07;3.40;;;2.45;;
18435;SDS011;9346;52.006;4.720;2023-09-12T12:22:35;2.60;;;2.40;;
18435;SDS011;9346;52.006;4.720;2023-09-12T12:25:05;4.80;;;2.37;;
18435;SDS011;9346;52.006;4.720;2023-09-12T12:27:36;2.80;;;2.50;;
18435;SDS011;9346;52.006;4.720;2023-09-12T12:30:05;2.97;;;2.33;;
18435;SDS011;9346;52.006;4.720;2023-09-12T12:32:32;3.47;;;2.37;;
18435;SDS011;9346;52.006;4.720;2023-09-12T12:34:59;3.10;;;2.13;;
18435;SDS011;9346;52.006;4.720;2023-09-12T12:37:28;2.77;;;1.83;;
18435;SDS011;9346;52.006;4.720;2023-09-12T12:39:59;3.33;;;2.23;;
18435;SDS011;9346;52.006;4.720;2023-09-12T12:42:32;2.53;;;2.00;;
18435;SDS011;9346;52.006;4.720;2023-09-12T12:45:05;3.13;;;2.23;;
18435;SDS011;9346;52.006;4.720;2023-09-12T12:47:37;2.53;;;2.33;;
18435;SDS011;9346;52.006;4.720;2023-09-12T12:50:06;3.33;;;2.70;;
18435;SDS011;9346;52.006;4.720;2023-09-12T12:52:34;3.50;;;2.47;;
18435;SDS011;9346;52.006;4.720;2023-09-12T12:55:06;3.37;;;2.60;;
18435;SDS011;9346;52.006;4.720;2023-09-12T12:57:35;2.17;;;1.97;;
18435;SDS011;9346;52.006;4.720;2023-09-12T13:00:06;2.97;;;2.10;;
18435;SDS011;9346;52.006;4.720;2023-09-12T13:02:36;2.70;;;2.23;;
18435;SDS011;9346;52.006;4.720;2023-09-12T13:05:03;2.40;;;2.17;;
18435;SDS011;9346;52.006;4.720;2023-09-12T13:07:32;2.93;;;2.47;;
18435;SDS011;9346;52.006;4.720;2023-09-12T13:09:59;2.33;;;2.10;;
18435;SDS011;9346;52.006;4.720;2023-09-12T13:12:26;4.07;;;2.33;;
18435;SDS011;9346;52.006;4.720;2023-09-12T13:14:53;6.10;;;2.30;;
18435;SDS011;9346;52.006;4.720;2023-09-12T13:17:22;3.40;;;2.37;;
18435;SDS011;9346;52.006;4.720;2023-09-12T13:19:49;2.93;;;2.27;;
18435;SDS011;9346;52.006;4.720;2023-09-12T13:22:16;3.07;;;2.37;;
18435;SDS011;9346;52.006;4.720;2023-09-12T13:24:43;3.00;;;2.70;;
18435;SDS011;9346;52.006;4.720;2023-09-12T13:27:09;2.70;;;2.27;;
18435;SDS011;9346;52.006;4.720;2023-09-12T13:29:36;2.83;;;2.50;;
18435;SDS011;9346;52.006;4.720;2023-09-12T13:32:03;3.73;;;2.50;;
18435;SDS011;9346;52.006;4.720;2023-09-12T13:34:32;4.10;;;3.00;;
18435;SDS011;9346;52.006;4.720;2023-09-12T13:36:59;3.53;;;3.03;;
18435;SDS011;9346;52.006;4.720;2023-09-12T13:39:25;3.43;;;3.13;;
18435;SDS011;9346;52.006;4.720;2023-09-12T13:41:52;5.63;;;3.30;;
18435;SDS011;9346;52.006;4.720;2023-09-12T13:44:22;3.27;;;2.80;;
18435;SDS011;9346;52.006;4.720;2023-09-12T13:46:49;4.67;;;3.60;;
18435;SDS011;9346;52.006;4.720;2023-09-12T13:49:16;5.87;;;4.03;;
18435;SDS011;9346;52.006;4.720;2023-09-12T13:51:44;5.43;;;4.00;;
18435;SDS011;9346;52.006;4.720;2023-09-12T13:54:11;7.23;;;5.47;;
18435;SDS011;9346;52.006;4.720;2023-09-12T13:56:39;8.50;;;6.60;;
18435;SDS011;9346;52.006;4.720;2023-09-12T13:59:06;11.07;;;7.77;;
18435;SDS011;9346;52.006;4.720;2023-09-12T14:01:33;14.00;;;9.05;;
18435;SDS011;9346;52.006;4.720;2023-09-12T14:04:00;11.83;;;7.60;;
18435;SDS011;9346;52.006;4.720;2023-09-12T14:06:27;7.80;;;5.97;;
18435;SDS011;9346;52.006;4.720;2023-09-12T14:08:55;6.17;;;5.30;;
18435;SDS011;9346;52.006;4.720;2023-09-12T14:11:22;7.13;;;4.63;;
18435;SDS011;9346;52.006;4.720;2023-09-12T14:13:49;11.10;;;4.40;;
18435;SDS011;9346;52.006;4.720;2023-09-12T14:16:16;5.00;;;3.50;;
18435;SDS011;9346;52.006;4.720;2023-09-12T14:18:44;3.23;;;2.90;;
18435;SDS011;9346;52.006;4.720;2023-09-12T14:21:11;3.20;;;2.77;;
18435;SDS011;9346;52.006;4.720;2023-09-12T14:23:37;3.23;;;2.50;;
18435;SDS011;9346;52.006;4.720;2023-09-12T14:26:06;3.73;;;2.47;;
18435;SDS011;9346;52.006;4.720;2023-09-12T14:28:33;3.50;;;2.73;;
18435;SDS011;9346;52.006;4.720;2023-09-12T14:31:00;3.13;;;2.57;;
18435;SDS011;9346;52.006;4.720;2023-09-12T14:33:28;2.67;;;2.47;;
18435;SDS011;9346;52.006;4.720;2023-09-12T14:35:55;2.80;;;2.50;;
18435;SDS011;9346;52.006;4.720;2023-09-12T14:38:22;2.93;;;2.57;;
18435;SDS011;9346;52.006;4.720;2023-09-12T14:40:49;4.17;;;2.77;;
18435;SDS011;9346;52.006;4.720;2023-09-12T14:43:18;2.47;;;2.27;;
18435;SDS011;9346;52.006;4.720;2023-09-12T14:45:45;3.93;;;2.63;;
18435;SDS011;9346;52.006;4.720;2023-09-12T14:48:11;2.67;;;2.30;;
18435;SDS011;9346;52.006;4.720;2023-09-12T14:50:38;3.50;;;2.60;;